Accueil
METAR-TAF:

METAR-TAF

Aéroports :

Anatom, Vanuatu

latitude: 20-14-57S, longitude: 169-46-17E, altitude: 2 m

Observation

Le bulletin a été fait il y a 3 heures et 6 minutes, à 21:00 UTC
Vent calme
Température 22°C
Humidité 88%
Pression 1014 hPa
Visibilité 10 km ou plus
Nuages épars à une hauteur de 2500 ft

METAR: NVVA 172100Z 00000KT 9999 SCT025 22/20 Q1014

Heure: 11:06 (00:06 UTC)

Prévision

Le bulletin a été fait il y a 1 heure et 6 minutes, à 23:00 UTC
Prévision valable du 18 à 00 UTC au 18 à 24 UTC
Vent 3 kt de direction variable
Visibilité 10 km ou plus
Nuages épars à une hauteur de 2000 ft
Nuages fragmentés à une hauteur de 11000 ft

TAF: NVVA 172300Z 1800/1824 VRB03KT 9999 SCT020 BKN110

Observations et prévisions météorologiques de plus de 4000 aéroports (messages METAR et TAF).

Les stations disponibles sont représentées par des disques jaunes et rouges sur la carte.

Passer la souris dessus pour voir le nom de la station.

Cliquer dessus pour voir les observations et prévisions météorologiques.

Pour changer de carte: cliquez sur les boutons verts avec une croix noire pour zoomer, sur le bouton vert avec un tiret pour effectuer un zoom arrière, ou sur les flèches vertes pour les cartes adjacentes.


METAR-TAF: